Aktuelles Wetter in Potsdam (Telegrafenberg, 81m)

Tag Datum Stunde Luftdruck Temperatur Luftfeuchte Niederschlag Windrichtung Windgeschw. Windspitzen Wolken
hPa °C % mm ° km/h km/h
Montag, 27.03.2017, 20:00 1023.4 13.1 5.1 18.3 41 0.0 0 0
Montag, 27.03.2017, 19:30 1023.5 14.2 38 0.0 N 5 9 heiter
Montag, 27.03.2017, 19:00 1023.5 15.5 33 0.0 N 6 11 heiter
Montag, 27.03.2017, 18:30 1023.4 16.3 29 0.0 NW 4 10 heiter
Montag, 27.03.2017, 18:00 1023.6 16.9 26 0.0 NW 6 17 heiter
Montag, 27.03.2017, 17:30 1023.8 17.6 24 0.0 NW 6 17 heiter
Montag, 27.03.2017, 17:00 1024.1 18.0 23 0.0 W 9 23 heiter
Montag, 27.03.2017, 16:30 1024.4 17.6 24 0.0 W 7 23 heiter
Montag, 27.03.2017, 16:00 1024.8 17.5 25 0.0 W 10 18 heiter
Montag, 27.03.2017, 15:30 1025.2 17.8 25 0.0 W 9 18 wolkenlos
Montag, 27.03.2017, 15:00 1025.4 17.4 25 0.0 W 12 17 heiter
Montag, 27.03.2017, 14:30 1025.9 16.5 27 0.0 W 9 16 heiter
Montag, 27.03.2017, 14:00 1026.3 16.5 27 0.0 NW 10 21 heiter
Montag, 27.03.2017, 13:30 1026.5 16.6 29 0.0 W 10 21 heiter
Montag, 27.03.2017, 13:00 1026.8 15.2 31 0.0 W 9 17 heiter
Montag, 27.03.2017, 12:30 1027.0 14.7 35 0.0 W 10 17 heiter
Montag, 27.03.2017, 12:00 1027.3 14.0 36 0.0 W 10 18 wolkenlos
Montag, 27.03.2017, 11:30 1027.3 13.5 37 0.0 W 8 17 wolkenlos
Montag, 27.03.2017, 11:00 1027.3 12.9 35 0.0 W 10 14 wolkenlos
Montag, 27.03.2017, 10:30 1027.4 11.7 40 0.0 SW 9 14 wolkenlos
Montag, 27.03.2017, 10:00 1027.3 10.4 46 0.0 SW 7 14 wolkenlos